CheckWX is a tool to help pilots better visualize weather data.  It is not intended as a substitute for an official pre-flight weather briefing.

05:27:46 UTC

KDTW METAR
Detroit Metropolitan Wayne County Airport
Detroit, Michigan, USA
Current

35 mins ago

KDTW 240453Z 10004KT 1/2SM R03R/P6000FT BR OVC002 04/03 A2959 RMK AO2 SFC VIS 1 RAE0359DZB0359E50 SLP025 P0001 T00390033 400441022
Observed
Feb-24 @ 04:53 UTC
Wind
  • 100° at 4 KTS
Visibility
1/2 SM
Flight Rules
LIFR
Conditions
Mist
Cloud Levels
  • Overcast at 200' AGL
Temperature
C / 39°F
Dewpoint
C / 37°F
Humidity
93%
Altimeter
29.59" Hg
Pressure
1002.5 hPa
Current Rain
0.01"
Previous

2 hours ago

KDTW 240356Z 09007KT 1/2SM R03R/P6000FT -RA BR OVC002 03/02 A2964 RMK AO2 SFC VIS 2 1/2 VIS E 1 P0000 T00330022
Observed
Feb-24 @ 03:56 UTC
Wind
  • 090° at 7 KTS
Visibility
1/2 SM
Flight Rules
LIFR
Conditions
Light Rain, Mist
Cloud Levels
  • Overcast at 200' AGL
Temperature
C / 37°F
Dewpoint
C / 36°F
Humidity
93%
Altimeter
29.64" Hg
Pressure
1003.72 hPa
Current Rain
0.01"
Previous

2 hours ago

KDTW 240323Z 09006KT 1/4SM R03R/P6000FT -DZ BR OVC002 03/02 A2968 RMK AO2 SFC VIS 1 RAE15DZB15 P0000 T00280017
Observed
Feb-24 @ 03:23 UTC
Wind
  • 090° at 6 KTS
Visibility
1/4 SM
Flight Rules
LIFR
Conditions
Light Drizzle, Mist
Cloud Levels
  • Overcast at 200' AGL
Temperature
C / 37°F
Dewpoint
C / 36°F
Humidity
93%
Altimeter
29.68" Hg
Pressure
1005.12 hPa
Current Rain
0.01"